Time;durP1;ratioP1;P1;durP2;ratioP2;P2;SDS_P1;SDS_P2;PMS_P1;PMS_P2;Temp;Humidity;BMP_temperature;BMP_pressure;BME280_temperature;BME280_humidity;BME280_pressure;Samples;Min_cycle;Max_cycle;Signal;HPM_P1;HPM_P2
2022/10/03 00:00:11;;;;;;;;;;;;;;;16.40;58.20;100642.59;5018048;28;1902;-51
2022/10/03 00:02:39;;;;;;;;;;;;;;;16.27;58.02;100629.41;5000537;28;1120;-50
2022/10/03 00:05:08;;;;;;;;;;;;;;;16.13;57.79;100631.88;5017735;28;1152;-51
2022/10/03 00:07:40;;;;;;;;;;;;;;;16.07;57.49;100626.41;5017455;28;1120;-50
2022/10/03 00:10:05;;;;;;;;;;;;;;;16.65;58.22;100628.00;5017168;28;1009;-51
2022/10/03 00:12:34;;;;;;;;;;;;;;;17.13;58.07;100619.38;5017450;28;1156;-51
2022/10/03 00:15:04;;;;;;;;;;;;;;;16.55;58.44;100630.75;5017325;28;1175;-47
2022/10/03 00:17:36;;;;;;;;;;;;;;;16.39;58.23;100632.69;5000729;28;1154;-50
2022/10/03 00:20:07;;;;;;;;;;;;;;;16.22;57.61;100633.78;5017479;28;1129;-52
2022/10/03 00:22:35;;;;;;;;;;;;;;;16.49;58.34;100624.44;5000135;28;1089;-48
2022/10/03 00:25:04;;;;;;;;;;;;;;;17.35;57.51;100619.00;5017055;28;1117;-52
2022/10/03 00:27:30;;;;;;;;;;;;;;;16.67;58.50;100623.03;5017467;28;1104;-48
2022/10/03 00:29:55;;;;;;;;;;;;;;;16.43;58.24;100623.63;5016935;28;1181;-51
2022/10/03 00:32:23;;;;;;;;;;;;;;;16.32;57.84;100608.28;5017357;28;1310;-52
2022/10/03 00:35:03;;;;;;;;;;;;;;;16.22;57.49;100605.56;4999784;28;1203;-50
2022/10/03 00:37:32;;;;;;;;;;;;;;;16.07;57.48;100598.97;5016704;28;1156;-49
2022/10/03 00:40:06;;;;;;;;;;;;;;;16.04;57.27;100601.44;4999454;28;1156;-50
2022/10/03 00:42:34;;;;;;;;;;;;;;;16.55;58.00;100597.81;5017218;28;1210;-51
2022/10/03 00:45:28;;;;;;;;;;;;;;;17.52;57.24;100587.56;5017016;28;1484;-48
2022/10/03 00:48:06;;;;;;;;;;;;;;;16.71;58.56;100596.69;4999766;28;1084;-52
2022/10/03 00:50:50;;;;;;;;;;;;;;;16.47;58.05;100590.97;5016746;28;1124;-51
2022/10/03 00:53:22;;;;;;;;;;;;;;;16.25;58.05;100600.31;5017272;28;1216;-51
2022/10/03 00:56:06;;;;;;;;;;;;;;;16.19;57.39;100595.13;4999543;28;1195;-50
2022/10/03 00:58:38;;;;;;;;;;;;;;;16.08;57.29;100600.59;5016839;28;1010;-49
2022/10/03 01:01:23;;;;;;;;;;;;;;;16.67;58.23;100595.59;5016694;28;1913;-51
2022/10/03 01:03:53;;;;;;;;;;;;;;;17.02;58.24;100593.84;5016058;28;1241;-50
2022/10/03 01:06:27;;;;;;;;;;;;;;;16.54;58.43;100598.94;4999314;28;1192;-47
2022/10/03 01:09:05;;;;;;;;;;;;;;;16.36;57.97;100594.84;5016333;28;1147;-53
2022/10/03 01:11:37;;;;;;;;;;;;;;;16.22;57.59;100591.84;4999318;28;1190;-52
2022/10/03 01:14:14;;;;;;;;;;;;;;;16.25;58.31;100588.53;5016592;28;1133;-51
2022/10/03 01:16:58;;;;;;;;;;;;;;;17.67;57.30;100590.22;4998996;28;1132;-51
2022/10/03 01:19:44;;;;;;;;;;;;;;;16.77;58.70;100592.84;5016392;28;1219;-49
2022/10/03 01:22:10;;;;;;;;;;;;;;;16.48;58.26;100595.38;5015799;28;1969;-49
2022/10/03 01:24:53;;;;;;;;;;;;;;;16.41;57.67;100590.16;5016703;28;1137;-53
2022/10/03 01:27:25;;;;;;;;;;;;;;;16.24;57.53;100590.47;5016703;28;1093;-50
2022/10/03 01:32:51;;;;;;;;;;;;;;;16.09;57.29;100590.47;5001591;28;1108;-52
2022/10/03 01:35:18;;;;;;;;;;;;;;;17.32;57.92;100585.75;4999380;28;1199;-52
2022/10/03 01:37:46;;;;;;;;;;;;;;;16.84;58.52;100583.47;5015829;28;1125;-51
2022/10/03 01:40:12;;;;;;;;;;;;;;;16.53;58.40;100581.63;5016306;28;1902;-47
2022/10/03 01:42:49;;;;;;;;;;;;;;;16.36;58.14;100581.94;5016383;28;1144;-51
2022/10/03 01:45:36;;;;;;;;;;;;;;;16.21;57.57;100576.47;5016291;28;1116;-53
2022/10/03 01:48:22;;;;;;;;;;;;;;;16.13;57.42;100566.88;4998628;28;1115;-51
2022/10/03 01:50:59;;;;;;;;;;;;;;;16.61;58.60;100574.75;5015203;28;1384;-52
2022/10/03 01:53:37;;;;;;;;;;;;;;;17.15;57.89;100569.63;5016179;28;1151;-51
2022/10/03 01:56:05;;;;;;;;;;;;;;;16.51;58.65;100563.78;5016359;28;1144;-51
2022/10/03 01:58:48;;;;;;;;;;;;;;;16.32;57.98;100553.41;5015262;28;1124;-51
2022/10/03 02:01:32;;;;;;;;;;;;;;;16.21;57.70;100549.84;4998798;28;1981;-51
2022/10/03 02:04:03;;;;;;;;;;;;;;;16.08;57.57;100548.50;5016282;28;1068;-52
2022/10/03 02:06:43;;;;;;;;;;;;;;;17.05;58.06;100552.06;5016007;28;1219;-49
2022/10/03 02:09:15;;;;;;;;;;;;;;;16.95;58.14;100552.13;5015333;28;1143;-51
2022/10/03 02:11:46;;;;;;;;;;;;;;;16.50;58.31;100546.50;5015951;28;1112;-49
2022/10/03 02:14:19;;;;;;;;;;;;;;;16.37;58.18;100553.41;5015865;28;1179;-50
2022/10/03 02:16:52;;;;;;;;;;;;;;;16.25;57.65;100558.34;4982554;28;1124;-51
2022/10/03 02:19:20;;;;;;;;;;;;;;;16.15;57.39;100561.94;4998079;28;1132;-51
2022/10/03 02:21:52;;;;;;;;;;;;;;;16.01;57.34;100563.59;4998195;28;1957;-49
2022/10/03 02:24:22;;;;;;;;;;;;;;;16.94;58.33;100569.72;4998868;28;1143;-50
2022/10/03 02:26:56;;;;;;;;;;;;;;;17.03;58.25;100568.03;4998902;28;1128;-50
2022/10/03 02:29:40;;;;;;;;;;;;;;;16.52;58.45;100565.44;5015544;28;1425;-48
2022/10/03 02:32:26;;;;;;;;;;;;;;;16.34;57.84;100567.69;5017556;28;1013;-52
2022/10/03 02:35:10;;;;;;;;;;;;;;;16.19;57.91;100562.22;5018962;28;1204;-52
2022/10/03 02:37:45;;;;;;;;;;;;;;;16.40;58.29;100563.81;5019682;28;1196;-50
2022/10/03 02:40:23;;;;;;;;;;;;;;;17.32;57.65;100561.84;5001875;28;1547;-48
2022/10/03 02:43:07;;;;;;;;;;;;;;;16.64;58.27;100567.88;5019223;28;1411;-52
2022/10/03 02:45:51;;;;;;;;;;;;;;;16.39;58.11;100575.06;5019309;28;1215;-53
2022/10/03 02:48:41;;;;;;;;;;;;;;;16.29;57.53;100583.31;5019177;28;1174;-51
2022/10/03 02:51:10;;;;;;;;;;;;;;;17.07;58.26;100582.84;4978817;28;1208;-48
2022/10/03 02:53:35;;;;;;;;;;;;;;;17.36;57.73;100601.41;5018656;28;1101;-52
2022/10/03 02:56:03;;;;;;;;;;;;;;;16.74;58.27;100601.59;5019115;28;1148;-51
2022/10/03 02:58:55;;;;;;;;;;;;;;;16.49;58.18;100605.22;5018581;28;1223;-50
2022/10/03 03:01:36;;;;;;;;;;;;;;;16.38;57.50;100593.47;5001736;28;1910;-48
2022/10/03 03:04:02;;;;;;;;;;;;;;;16.27;57.29;100601.97;5018921;28;1065;-51
2022/10/03 03:06:31;;;;;;;;;;;;;;;16.18;57.12;100604.44;5019471;28;1207;-47
2022/10/03 03:08:57;;;;;;;;;;;;;;;16.04;57.10;100599.50;5018916;28;1100;-51
2022/10/03 03:11:39;;;;;;;;;;;;;;;16.86;58.26;100597.75;5018288;28;891;-50
2022/10/03 03:14:08;;;;;;;;;;;;;;;17.14;58.04;100592.69;5018930;28;1399;-50
2022/10/03 03:16:55;;;;;;;;;;;;;;;16.63;58.36;100589.00;5001122;28;1127;-48
2022/10/03 03:19:24;;;;;;;;;;;;;;;16.36;58.05;100581.13;5018528;28;1160;-52
2022/10/03 03:21:49;;;;;;;;;;;;;;;16.25;57.83;100572.88;5018199;28;1894;-49
2022/10/03 03:24:25;;;;;;;;;;;;;;;16.16;57.31;100584.69;5018444;28;1108;-50
2022/10/03 03:26:53;;;;;;;;;;;;;;;16.32;58.19;100582.75;5000754;28;1279;-48
2022/10/03 03:29:31;;;;;;;;;;;;;;;17.50;57.53;100585.13;5018138;28;1148;-49
2022/10/03 03:32:02;;;;;;;;;;;;;;;16.70;58.29;100578.56;5018345;28;1147;-47
2022/10/03 03:34:46;;;;;;;;;;;;;;;16.47;58.00;100573.69;5017847;28;903;-48
2022/10/03 03:37:21;;;;;;;;;;;;;;;16.29;57.68;100569.59;5001751;28;1218;-50
2022/10/03 03:39:49;;;;;;;;;;;;;;;16.17;57.36;100576.22;5001334;28;1187;-47
2022/10/03 03:42:23;;;;;;;;;;;;;;;16.05;57.57;100571.00;5017938;28;1902;-51
2022/10/03 03:45:06;;;;;;;;;;;;;;;16.31;58.17;100570.13;5017286;28;1156;-50
2022/10/03 03:47:37;;;;;;;;;;;;;;;17.68;57.11;100561.59;5000301;28;1174;-49
2022/10/03 03:50:14;;;;;;;;;;;;;;;16.78;58.42;100568.94;5018357;28;1128;-47
2022/10/03 03:52:40;;;;;;;;;;;;;;;16.51;58.13;100564.63;5017210;28;1235;-51
2022/10/03 03:55:08;;;;;;;;;;;;;;;16.36;57.78;100565.47;5018343;28;1216;-47
2022/10/03 03:57:37;;;;;;;;;;;;;;;16.22;57.50;100548.75;5017315;28;1246;-49
2022/10/03 04:00:05;;;;;;;;;;;;;;;16.15;57.35;100550.94;5017605;28;1204;-49
2022/10/03 04:02:49;;;;;;;;;;;;;;;15.99;57.33;100552.91;5017139;28;1910;-50
2022/10/03 04:05:18;;;;;;;;;;;;;;;16.89;58.27;100548.59;5017714;28;1223;-49
2022/10/03 04:07:49;;;;;;;;;;;;;;;17.28;57.84;100552.53;5017241;28;1176;-50
2022/10/03 04:10:33;;;;;;;;;;;;;;;16.63;58.54;100545.09;4999871;28;1226;-46
2022/10/03 04:13:21;;;;;;;;;;;;;;;16.37;58.33;100538.88;5004872;28;1220;-48
2022/10/03 04:16:05;;;;;;;;;;;;;;;16.26;57.66;100529.81;5016006;28;2388;-48
2022/10/03 04:18:59;;;;;;;;;;;;;;;16.16;57.58;100538.06;5010877;28;2185;-50
2022/10/03 04:21:37;;;;;;;;;;;;;;;17.60;57.42;100534.75;5014743;28;2240;-48
2022/10/03 04:24:02;;;;;;;;;;;;;;;16.80;58.57;100541.19;5014200;28;2084;-50
2022/10/03 04:26:28;;;;;;;;;;;;;;;16.49;58.23;100544.84;5016672;28;2314;-50
2022/10/03 04:28:54;;;;;;;;;;;;;;;16.37;58.04;100558.06;5011692;28;2258;-48
2022/10/03 04:31:19;;;;;;;;;;;;;;;16.25;57.60;100548.19;5015037;28;2112;-49
2022/10/03 04:33:45;;;;;;;;;;;;;;;16.34;58.31;100547.63;5017039;28;1143;-48
2022/10/03 04:36:23;;;;;;;;;;;;;;;17.62;57.25;100549.81;5016509;28;1053;-49
2022/10/03 04:38:49;;;;;;;;;;;;;;;16.80;58.47;100544.75;5017215;28;1156;-46
2022/10/03 04:41:14;;;;;;;;;;;;;;;16.53;58.36;100550.63;5016755;28;1910;-49
2022/10/03 04:43:42;;;;;;;;;;;;;;;16.40;57.86;100555.56;4999310;28;1140;-50
2022/10/03 04:46:07;;;;;;;;;;;;;;;16.22;57.80;100546.00;5016962;28;1168;-46
2022/10/03 04:48:36;;;;;;;;;;;;;;;16.17;57.70;100536.97;5016807;28;1267;-47
2022/10/03 04:51:06;;;;;;;;;;;;;;;16.11;57.27;100529.84;5017007;28;1123;-47
2022/10/03 04:53:44;;;;;;;;;;;;;;;17.27;57.91;100526.16;5016787;28;1073;-50
2022/10/03 04:56:13;;;;;;;;;;;;;;;16.89;58.50;100525.81;4999692;28;1116;-48
2022/10/03 04:58:39;;;;;;;;;;;;;;;16.55;58.60;100518.19;4998867;28;1219;-50
2022/10/03 05:01:16;;;;;;;;;;;;;;;16.39;58.10;100522.94;4998995;28;2380;-49
2022/10/03 05:03:53;;;;;;;;;;;;;;;16.20;57.98;100515.28;4998957;28;1093;-48
2022/10/03 05:06:22;;;;;;;;;;;;;;;16.15;57.49;100512.56;4999183;28;1175;-50
2022/10/03 05:08:50;;;;;;;;;;;;;;;16.13;57.11;100508.44;5016679;28;1112;-49
2022/10/03 05:11:34;;;;;;;;;;;;;;;17.24;57.97;100505.56;4998779;28;945;-48
2022/10/03 05:14:07;;;;;;;;;;;;;;;17.03;58.44;100504.84;5016070;28;1108;-47
2022/10/03 05:16:52;;;;;;;;;;;;;;;16.63;58.30;100501.16;4998879;28;1108;-48
2022/10/03 05:19:20;;;;;;;;;;;;;;;16.38;58.10;100511.16;5016061;28;1175;-48
2022/10/03 05:21:57;;;;;;;;;;;;;;;16.24;57.79;100521.88;5016303;28;1975;-49
2022/10/03 05:24:29;;;;;;;;;;;;;;;16.47;58.68;100529.78;5015587;28;1013;-45
2022/10/03 05:27:13;;;;;;;;;;;;;;;17.38;57.82;100535.16;4999097;28;1156;-50
2022/10/03 05:29:43;;;;;;;;;;;;;;;16.67;58.69;100539.88;5016049;28;1112;-51
2022/10/03 05:32:30;;;;;;;;;;;;;;;16.45;58.33;100542.94;4998621;28;2775;-47
2022/10/03 05:34:59;;;;;;;;;;;;;;;16.36;57.88;100539.97;4998157;28;1219;-50
2022/10/03 05:37:24;;;;;;;;;;;;;;;16.26;57.57;100535.31;5015611;28;1218;-50
2022/10/03 05:40:00;;;;;;;;;;;;;;;17.77;55.26;100542.56;5015353;28;1061;-49
2022/10/03 05:42:42;;;;;;;;;;;;;;;16.97;55.32;100541.72;4998538;28;1918;-48
2022/10/03 05:45:22;;;;;;;;;;;;;;;16.59;54.03;100541.25;4998426;28;1144;-50
2022/10/03 05:47:49;;;;;;;;;;;;;;;18.25;54.06;100539.97;4998277;28;1120;-44
2022/10/03 05:50:14;;;;;;;;;;;;;;;17.17;54.12;100538.03;4998517;28;1113;-49
2022/10/03 05:53:00;;;;;;;;;;;;;;;16.95;52.54;100545.84;5015933;28;1140;-47
2022/10/03 05:55:44;;;;;;;;;;;;;;;17.28;53.92;100544.28;4984713;28;1231;-48
2022/10/03 05:58:25;;;;;;;;;;;;;;;16.86;52.42;100553.81;4998624;28;1097;-47
2022/10/03 06:00:56;;;;;;;;;;;;;;;17.84;53.77;100555.97;5015405;28;1914;-51
2022/10/03 06:03:34;;;;;;;;;;;;;;;17.34;53.41;100556.06;5002651;28;1112;-49
2022/10/03 06:06:23;;;;;;;;;;;;;;;17.96;53.94;100553.72;5015949;28;1112;-49
2022/10/03 06:08:53;;;;;;;;;;;;;;;16.06;59.26;100564.41;5003967;28;1271;-47
2022/10/03 06:11:38;;;;;;;;;;;;;;;15.95;57.10;100562.78;5002001;28;1128;-47
2022/10/03 06:14:07;;;;;;;;;;;;;;;18.06;55.32;100556.41;5019680;28;1120;-47
2022/10/03 06:16:37;;;;;;;;;;;;;;;17.33;54.09;100557.97;5018937;28;1116;-48
2022/10/03 06:19:15;;;;;;;;;;;;;;;17.17;51.92;100553.69;5001753;28;1111;-49
2022/10/03 06:21:52;;;;;;;;;;;;;;;17.88;53.67;100551.53;5019335;28;1976;-45
2022/10/03 06:24:28;;;;;;;;;;;;;;;17.19;52.68;100543.22;5001605;28;1115;-48
2022/10/03 06:27:13;;;;;;;;;;;;;;;17.12;50.92;100545.47;5002058;28;1132;-44
2022/10/03 06:29:57;;;;;;;;;;;;;;;17.94;52.42;100547.69;5019236;28;1208;-45
2022/10/03 06:32:44;;;;;;;;;;;;;;;17.27;51.80;100553.63;5011714;28;1109;-49
2022/10/03 06:35:26;;;;;;;;;;;;;;;17.99;52.62;100546.81;5007427;28;1117;-50
2022/10/03 06:38:06;;;;;;;;;;;;;;;17.45;51.93;100554.91;5019070;28;1139;-50
2022/10/03 06:40:36;;;;;;;;;;;;;;;17.21;50.78;100560.28;5001701;28;1961;-49
2022/10/03 06:43:04;;;;;;;;;;;;;;;18.23;52.20;100558.72;5019101;28;1164;-48
2022/10/03 06:45:53;;;;;;;;;;;;;;;17.64;51.86;100555.03;5018886;28;1211;-46
2022/10/03 06:48:23;;;;;;;;;;;;;;;17.38;50.36;100566.19;4972828;28;1341;-44
2022/10/03 06:50:52;;;;;;;;;;;;;;;17.56;51.22;100561.97;5001366;28;1151;-50
2022/10/03 06:53:21;;;;;;;;;;;;;;;17.74;51.56;100559.63;5019387;28;1148;-46
2022/10/03 06:55:46;;;;;;;;;;;;;;;17.43;50.24;100562.59;5001483;28;1136;-48
2022/10/03 06:58:23;;;;;;;;;;;;;;;17.21;49.63;100552.84;5018840;28;1132;-47
2022/10/03 07:00:48;;;;;;;;;;;;;;;17.16;48.62;100552.03;5006190;28;1986;-44
2022/10/03 07:03:20;;;;;;;;;;;;;;;17.89;50.42;100553.19;5018587;28;1115;-47
2022/10/03 07:06:02;;;;;;;;;;;;;;;17.46;50.13;100559.31;5018547;28;1116;-50
2022/10/03 07:08:27;;;;;;;;;;;;;;;17.22;48.88;100545.41;5001516;28;1124;-44
2022/10/03 07:10:56;;;;;;;;;;;;;;;18.04;50.20;100555.03;5018642;28;1159;-46
2022/10/03 07:13:25;;;;;;;;;;;;;;;17.49;50.07;100553.22;5018256;28;938;-46
2022/10/03 07:16:01;;;;;;;;;;;;;;;17.37;48.97;100553.56;5018555;28;1152;-44
2022/10/03 07:18:36;;;;;;;;;;;;;;;17.20;48.40;100553.13;5001198;28;1120;-48
2022/10/03 07:21:14;;;;;;;;;;;;;;;17.56;48.92;100561.16;5017452;28;1910;-46
2022/10/03 10:11:22;;;;;;;;;;;;;;;17.90;50.07;100547.41;4936520;29;1754;-50
2022/10/03 10:14:07;;;;;;;;;;;;;;;17.31;49.65;100549.22;4930564;29;2555;-48
2022/10/03 10:16:50;;;;;;;;;;;;;;;17.22;49.09;100537.16;4938060;29;1121;-50
2022/10/03 10:19:22;;;;;;;;;;;;;;;17.64;49.62;100546.78;4926135;29;1115;-51
2022/10/03 10:21:50;;;;;;;;;;;;;;;17.38;48.58;100543.41;4938777;29;1970;-51
2022/10/03 10:24:36;;;;;;;;;;;;;;;17.11;48.38;100533.69;4938309;29;1090;-47
2022/10/03 10:27:09;;;;;;;;;;;;;;;18.00;49.35;100538.28;4921256;29;972;-48
2022/10/03 10:29:57;;;;;;;;;;;;;;;17.47;49.03;100535.38;4921697;29;1091;-50
2022/10/03 10:32:23;;;;;;;;;;;;;;;17.22;48.28;100529.75;4925847;29;1290;-49
2022/10/03 10:35:01;;;;;;;;;;;;;;;18.44;48.85;100531.78;4938430;29;1115;-50
2022/10/03 10:37:45;;;;;;;;;;;;;;;17.58;49.40;100523.19;4938861;29;1146;-50
2022/10/03 10:40:13;;;;;;;;;;;;;;;17.36;48.37;100529.94;4929278;29;1197;-49
2022/10/03 10:42:39;;;;;;;;;;;;;;;17.21;47.82;100517.13;4931332;29;2561;-51
2022/10/03 10:45:13;;;;;;;;;;;;;;;17.87;48.70;100525.16;4931880;29;1187;-47
2022/10/03 10:47:39;;;;;;;;;;;;;;;17.54;49.27;100522.94;4925854;29;1118;-46
2022/10/03 10:50:04;;;;;;;;;;;;;;;17.22;48.54;100518.78;4947982;29;1142;-48
2022/10/03 10:52:29;;;;;;;;;;;;;;;17.24;47.65;100521.22;4927010;29;1126;-49
2022/10/03 10:55:13;;;;;;;;;;;;;;;17.96;48.61;100520.69;4941786;29;1212;-50
2022/10/03 10:57:58;;;;;;;;;;;;;;;17.37;48.64;100506.84;4941516;29;1157;-53
2022/10/03 11:00:25;;;;;;;;;;;;;;;17.22;47.82;100515.19;4941288;29;1110;-52
2022/10/03 11:03:22;;;;;;;;;;;;;;;18.06;48.61;100498.63;4920328;29;1911;-52
2022/10/03 11:06:06;;;;;;;;;;;;;;;17.47;48.41;100507.88;4898419;29;1379;-50
2022/10/03 11:08:40;;;;;;;;;;;;;;;17.37;47.40;100498.59;4940534;29;1257;-48
2022/10/03 11:11:12;;;;;;;;;;;;;;;17.19;47.70;100493.78;4924201;29;1159;-52
2022/10/03 11:13:39;;;;;;;;;;;;;;;17.89;48.83;100495.44;4937112;29;1818;-48
2022/10/03 11:16:34;;;;;;;;;;;;;;;17.38;48.68;100493.94;4932796;29;1312;-50
2022/10/03 11:19:15;;;;;;;;;;;;;;;18.19;48.80;100496.25;4911980;29;1134;-51
2022/10/03 11:21:46;;;;;;;;;;;;;;;17.56;48.46;100493.25;4937156;29;1972;-48
2022/10/03 11:24:15;;;;;;;;;;;;;;;17.36;47.74;100491.47;4921744;29;1190;-50
2022/10/03 11:26:58;;;;;;;;;;;;;;;17.23;47.31;100481.09;4934007;29;1194;-50
2022/10/03 11:29:43;;;;;;;;;;;;;;;17.76;47.92;100494.97;4941264;29;1075;-51
2022/10/03 11:32:23;;;;;;;;;;;;;;;17.73;48.98;100486.50;4928416;29;1111;-52
2022/10/03 11:35:07;;;;;;;;;;;;;;;17.42;48.30;100484.81;4923387;29;1162;-51
2022/10/03 11:37:32;;;;;;;;;;;;;;;18.22;49.00;100474.50;4942931;29;1134;-52
2022/10/03 11:40:12;;;;;;;;;;;;;;;15.12;55.92;100474.13;4931669;29;1179;-50
2022/10/03 11:42:56;;;;;;;;;;;;;;;17.21;50.96;100461.34;4913605;29;2506;-49
2022/10/03 11:45:24;;;;;;;;;;;;;;;17.57;50.40;100472.06;4941262;29;1165;-49
2022/10/03 11:47:50;;;;;;;;;;;;;;;17.31;49.46;100466.78;4923937;29;1194;-50
2022/10/03 11:50:34;;;;;;;;;;;;;;;17.79;49.75;100472.44;4940366;29;1134;-51
2022/10/03 11:52:59;;;;;;;;;;;;;;;15.81;55.40;100471.19;4939963;29;1031;-48
2022/10/03 11:55:27;;;;;;;;;;;;;;;15.84;53.30;100468.72;4940567;29;1223;-51
2022/10/03 11:58:11;;;;;;;;;;;;;;;17.88;51.43;100469.88;4940545;29;1281;-50
2022/10/03 12:00:38;;;;;;;;;;;;;;;17.27;50.56;100483.00;4939934;29;1898;-51
2022/10/03 12:03:17;;;;;;;;;;;;;;;17.16;49.45;100469.63;4918995;29;917;-51
2022/10/03 12:05:46;;;;;;;;;;;;;;;17.00;48.99;100466.97;4936951;29;1187;-52
2022/10/03 12:11:15;;;;;;;;;;;;;;;17.22;48.89;100462.97;4939654;29;1260;-47
2022/10/03 12:13:59;;;;;;;;;;;;;;;17.51;48.97;100459.47;4928520;29;2538;-45
2022/10/03 12:16:29;;;;;;;;;;;;;;;17.52;49.24;100469.38;4927948;29;1111;-47
2022/10/03 12:19:14;;;;;;;;;;;;;;;17.28;48.63;100459.91;4939870;29;1110;-52
2022/10/03 12:21:46;;;;;;;;;;;;;;;17.07;48.08;100456.47;4880878;29;1981;-50
2022/10/03 12:24:31;;;;;;;;;;;;;;;17.89;49.13;100462.41;4939933;29;1134;-50
2022/10/03 12:27:03;;;;;;;;;;;;;;;17.32;48.80;100454.69;4917510;29;1273;-51
2022/10/03 12:29:31;;;;;;;;;;;;;;;17.80;49.20;100454.00;4937213;29;1170;-47
2022/10/03 12:32:25;;;;;;;;;;;;;;;17.58;49.45;100448.97;4922980;29;1201;-48
2022/10/03 12:34:57;;;;;;;;;;;;;;;17.30;48.56;100448.63;4910091;29;1278;-51
2022/10/03 12:37:32;;;;;;;;;;;;;;;17.61;50.44;100456.63;4939651;29;1079;-48
2022/10/03 12:40:14;;;;;;;;;;;;;;;15.33;54.94;100447.63;4952644;29;1166;-50
2022/10/03 12:42:47;;;;;;;;;;;;;;;18.38;51.33;100449.53;4912706;29;2687;-48
2022/10/03 12:45:12;;;;;;;;;;;;;;;17.47;51.35;100455.66;4919439;29;1367;-51
2022/10/03 12:47:38;;;;;;;;;;;;;;;17.37;50.71;100462.84;4939212;29;1126;-50
2022/10/03 12:50:16;;;;;;;;;;;;;;;17.90;50.99;100461.31;4941115;29;1134;-46
2022/10/03 12:52:56;;;;;;;;;;;;;;;17.43;50.24;100466.38;4925908;29;1098;-51
2022/10/03 12:55:23;;;;;;;;;;;;;;;17.28;48.80;100465.41;4922670;29;1167;-49
2022/10/03 12:57:57;;;;;;;;;;;;;;;17.23;47.95;100464.63;4922399;29;1143;-48
2022/10/03 13:00:27;;;;;;;;;;;;;;;17.10;47.70;100469.66;4938922;29;1166;-52
2022/10/03 13:03:10;;;;;;;;;;;;;;;17.10;46.99;100480.63;4907624;29;1914;-47
2022/10/03 13:05:56;;;;;;;;;;;;;;;17.91;48.75;100490.50;4916717;29;1143;-48
2022/10/03 13:08:22;;;;;;;;;;;;;;;17.39;48.92;100495.56;4939160;29;1106;-48
2022/10/03 13:10:48;;;;;;;;;;;;;;;17.16;48.19;100488.84;4938234;29;1143;-49
2022/10/03 13:13:24;;;;;;;;;;;;;;;17.04;47.43;100487.28;4921649;29;2558;-51
2022/10/03 13:15:51;;;;;;;;;;;;;;;17.04;46.66;100480.94;4909150;29;942;-51
2022/10/03 13:18:17;;;;;;;;;;;;;;;17.70;48.72;100482.41;4939247;29;1205;-50
2022/10/03 13:20:47;;;;;;;;;;;;;;;17.18;48.74;100479.22;4938638;29;1980;-50
2022/10/03 13:23:15;;;;;;;;;;;;;;;17.89;48.82;100476.19;4938833;29;1221;-45
2022/10/03 13:25:44;;;;;;;;;;;;;;;17.87;49.32;100479.22;4938694;29;1201;-51
2022/10/03 13:28:24;;;;;;;;;;;;;;;17.44;48.71;100463.34;4946855;29;1443;-49
2022/10/03 13:30:52;;;;;;;;;;;;;;;17.97;49.35;100448.06;4930955;29;1131;-48
2022/10/03 13:33:22;;;;;;;;;;;;;;;17.60;49.24;100444.00;4921706;29;1245;-49
2022/10/03 13:35:57;;;;;;;;;;;;;;;17.38;48.36;100445.28;4938549;29;1181;-50
2022/10/03 13:38:26;;;;;;;;;;;;;;;18.20;48.42;100440.13;4940517;29;1102;-50
2022/10/03 13:41:10;;;;;;;;;;;;;;;17.55;48.96;100447.59;4937382;29;1910;-50
2022/10/03 13:43:37;;;;;;;;;;;;;;;17.32;47.88;100429.94;4923046;29;2640;-48
2022/10/03 13:46:12;;;;;;;;;;;;;;;17.13;47.62;100427.06;4938736;29;1099;-48
2022/10/03 13:48:38;;;;;;;;;;;;;;;17.34;47.82;100427.72;4918799;29;1465;-50
2022/10/03 13:51:05;;;;;;;;;;;;;;;18.01;48.74;100429.88;4927248;29;1051;-48
2022/10/03 13:53:35;;;;;;;;;;;;;;;17.42;48.69;100432.59;4940138;29;1114;-49
2022/10/03 13:56:03;;;;;;;;;;;;;;;17.32;47.49;100421.69;4938520;29;1098;-50
2022/10/03 13:58:31;;;;;;;;;;;;;;;17.22;47.15;100419.84;4915307;29;972;-48
2022/10/03 14:01:02;;;;;;;;;;;;;;;17.94;48.12;100430.22;4931451;29;1982;-52
2022/10/03 14:03:34;;;;;;;;;;;;;;;17.47;48.39;100428.16;4926902;29;1176;-53
2022/10/03 14:06:09;;;;;;;;;;;;;;;17.23;47.84;100426.16;4931285;29;1210;-48
2022/10/03 14:08:58;;;;;;;;;;;;;;;18.09;47.96;100431.16;4938606;29;1142;-51
2022/10/03 14:11:32;;;;;;;;;;;;;;;17.40;48.34;100431.25;4906373;29;1274;-49
2022/10/03 14:14:07;;;;;;;;;;;;;;;17.40;48.45;100412.84;4926373;29;1166;-52
2022/10/03 14:17:01;;;;;;;;;;;;;;;17.96;48.58;100421.66;4926817;29;941;-52
2022/10/03 14:19:44;;;;;;;;;;;;;;;17.47;48.21;100408.91;4910988;29;1273;-52
2022/10/03 14:22:10;;;;;;;;;;;;;;;17.30;47.37;100410.16;4920457;29;1910;-50
2022/10/03 14:24:38;;;;;;;;;;;;;;;18.27;48.33;100418.56;4938441;29;1114;-50
2022/10/03 14:27:03;;;;;;;;;;;;;;;15.05;56.02;100413.31;4936150;28;1099;-49
2022/10/03 14:29:38;;;;;;;;;;;;;;;16.56;52.19;100412.81;4931597;29;1100;-51
2022/10/03 14:32:37;;;;;;;;;;;;;;;17.84;50.57;100412.94;4941780;29;1181;-49
2022/10/03 14:35:21;;;;;;;;;;;;;;;17.32;49.46;100413.44;4877483;29;1156;-48
2022/10/03 14:37:46;;;;;;;;;;;;;;;17.17;48.48;100405.34;4918289;29;1088;-49
2022/10/03 14:40:12;;;;;;;;;;;;;;;18.15;49.62;100407.19;4954033;29;1000;-49
2022/10/03 14:42:37;;;;;;;;;;;;;;;17.50;49.73;100403.69;4930007;29;2460;-50
2022/10/03 14:45:07;;;;;;;;;;;;;;;17.24;48.46;100406.63;4933567;29;1135;-52
2022/10/03 14:47:37;;;;;;;;;;;;;;;17.27;47.78;100405.25;4924805;29;1241;-49
2022/10/03 14:50:03;;;;;;;;;;;;;;;18.15;48.70;100396.16;4941038;29;1149;-51
2022/10/03 14:52:49;;;;;;;;;;;;;;;17.41;49.12;100394.41;4950360;29;1225;-52
2022/10/03 14:55:22;;;;;;;;;;;;;;;17.27;48.05;100403.31;4932883;29;1273;-50
2022/10/03 14:57:51;;;;;;;;;;;;;;;17.22;47.14;100405.28;4941071;29;1146;-50
2022/10/03 15:00:24;;;;;;;;;;;;;;;17.10;46.81;100400.16;4941654;29;1137;-52
2022/10/03 15:02:50;;;;;;;;;;;;;;;17.86;47.83;100400.56;4924278;29;1980;-50
2022/10/03 15:05:32;;;;;;;;;;;;;;;17.58;48.83;100393.97;4944125;29;1102;-50
2022/10/03 15:07:57;;;;;;;;;;;;;;;17.26;47.84;100404.44;4938152;29;1170;-50
2022/10/03 15:10:24;;;;;;;;;;;;;;;17.16;47.26;100398.19;4941118;29;1243;-49
2022/10/03 15:12:56;;;;;;;;;;;;;;;17.08;46.72;100400.44;4923830;29;2225;-49
2022/10/03 15:15:22;;;;;;;;;;;;;;;17.18;47.27;100404.19;4941575;29;1138;-49
2022/10/03 15:17:48;;;;;;;;;;;;;;;17.74;48.29;100406.47;4924715;29;1233;-52
2022/10/03 15:20:15;;;;;;;;;;;;;;;17.35;48.15;100401.03;4941031;29;1292;-49
2022/10/03 15:22:41;;;;;;;;;;;;;;;17.47;48.23;100396.00;4924144;29;1906;-51
2022/10/03 15:25:16;;;;;;;;;;;;;;;17.73;48.62;100402.06;4923811;29;1329;-52
2022/10/03 15:27:42;;;;;;;;;;;;;;;17.37;47.86;100399.66;4940694;29;1110;-49
2022/10/03 15:30:16;;;;;;;;;;;;;;;18.39;48.10;100398.88;4920705;29;1220;-49
2022/10/03 15:32:42;;;;;;;;;;;;;;;14.70;57.33;100402.06;4914761;29;1096;-48
2022/10/03 15:35:14;;;;;;;;;;;;;;;17.39;51.61;100396.59;4938241;29;1146;-51
2022/10/03 15:37:40;;;;;;;;;;;;;;;16.85;54.00;100395.63;4914317;29;1178;-48
2022/10/03 15:40:08;;;;;;;;;;;;;;;16.18;56.86;100396.78;4939403;29;1220;-52
2022/10/03 15:42:42;;;;;;;;;;;;;;;18.84;51.21;100404.06;4923762;29;2582;-50
2022/10/03 15:45:11;;;;;;;;;;;;;;;14.85;60.29;100404.00;4940662;29;1150;-51
2022/10/03 15:47:40;;;;;;;;;;;;;;;16.56;52.96;100410.06;4923244;29;1273;-49
2022/10/03 15:50:15;;;;;;;;;;;;;;;17.30;51.96;100410.16;4940063;29;1186;-55
2022/10/03 15:52:42;;;;;;;;;;;;;;;17.89;52.55;100407.41;4931722;29;1318;-52
2022/10/03 15:55:14;;;;;;;;;;;;;;;17.38;51.29;100408.72;4916454;29;1361;-48
2022/10/03 15:57:59;;;;;;;;;;;;;;;17.20;49.80;100413.00;4933973;29;1128;-54
2022/10/03 16:00:27;;;;;;;;;;;;;;;17.34;49.53;100421.41;4914767;29;1104;-52
2022/10/03 16:02:55;;;;;;;;;;;;;;;17.85;50.49;100422.84;4939961;29;1906;-52
2022/10/03 16:05:23;;;;;;;;;;;;;;;17.37;49.80;100421.63;4922644;29;1187;-55
2022/10/03 16:07:49;;;;;;;;;;;;;;;17.28;48.58;100431.63;4940056;29;1137;-52
2022/10/03 16:10:19;;;;;;;;;;;;;;;17.14;48.08;100428.69;4939919;29;1237;-55
2022/10/03 16:12:44;;;;;;;;;;;;;;;18.23;49.43;100432.09;4935576;29;1808;-54
2022/10/03 16:15:48;;;;;;;;;;;;;;;17.57;49.53;100430.81;4932827;29;1399;-54